createdAt,value
2019-01-17T00:02:16.322Z,82.40
2019-01-17T00:05:01.011Z,81.50
2019-01-17T00:08:01.467Z,82.50
2019-01-17T00:10:43.922Z,82.70
2019-01-17T00:13:29.086Z,82.70
2019-01-17T00:16:14.728Z,82.90
2019-01-17T00:18:56.874Z,82.40
2019-01-17T00:21:57.145Z,81.30
2019-01-17T00:24:56.737Z,80.20
2019-01-17T00:27:42.194Z,81.30
2019-01-17T00:30:41.775Z,80.70
2019-01-17T00:33:41.563Z,80.20
2019-01-17T00:36:42.031Z,81.00
2019-01-17T00:39:24.751Z,80.60
2019-01-17T00:42:24.855Z,80.50
2019-01-17T00:45:09.782Z,80.80
2019-01-17T00:50:49.766Z,80.70
2019-01-17T00:53:32.267Z,76.70
2019-01-17T00:56:14.762Z,75.50
2019-01-17T00:58:57.566Z,73.90
2019-01-17T01:01:57.819Z,74.20
2019-01-17T01:04:42.575Z,70.60
2019-01-17T01:07:28.345Z,67.70
2019-01-17T01:13:20.892Z,70.90
2019-01-17T01:16:20.415Z,71.60
2019-01-17T01:19:20.495Z,70.60
2019-01-17T01:22:06.125Z,71.40
2019-01-17T01:24:48.857Z,72.30
2019-01-17T01:27:31.603Z,72.00
2019-01-17T01:30:13.877Z,71.00
2019-01-17T01:33:13.919Z,68.80
2019-01-17T01:36:14.379Z,64.70
2019-01-17T01:38:56.565Z,65.30
2019-01-17T01:44:49.184Z,67.30
2019-01-17T01:47:49.255Z,65.90
2019-01-17T01:50:49.489Z,67.20
2019-01-17T01:53:30.747Z,66.70
2019-01-17T01:56:11.893Z,68.80
2019-01-17T01:58:52.691Z,68.60
2019-01-17T02:01:33.179Z,67.80
2019-01-17T02:04:14.103Z,66.20
2019-01-17T02:06:55.251Z,66.00
2019-01-17T02:09:35.831Z,64.70
2019-01-17T02:12:16.395Z,65.70
2019-01-17T02:14:57.030Z,65.30
2019-01-17T02:17:37.431Z,67.60
2019-01-17T02:20:18.255Z,67.30
2019-01-17T02:22:59.107Z,67.80
2019-01-17T02:25:39.498Z,69.00
2019-01-17T02:28:19.961Z,68.70
2019-01-17T02:31:00.921Z,68.10
2019-01-17T02:33:41.822Z,68.60
2019-01-17T02:36:22.673Z,68.70
2019-01-17T02:39:03.377Z,69.30
2019-01-17T02:41:44.012Z,69.20
2019-01-17T02:44:24.340Z,69.70
2019-01-17T02:47:04.933Z,70.20
2019-01-17T02:49:45.519Z,70.10
2019-01-17T02:52:26.222Z,69.80
2019-01-17T02:55:06.725Z,70.20
2019-01-17T02:57:47.081Z,69.90
2019-01-17T03:00:27.547Z,70.20
2019-01-17T03:03:08.292Z,71.00
2019-01-17T03:05:49.000Z,69.90
2019-01-17T03:08:30.213Z,70.00
2019-01-17T03:11:10.909Z,70.10
2019-01-17T03:13:51.479Z,70.50
2019-01-17T03:16:32.042Z,69.70
2019-01-17T03:19:12.565Z,70.40
2019-01-17T03:21:53.197Z,70.40
2019-01-17T03:24:33.928Z,70.20
2019-01-17T03:27:14.440Z,69.60
2019-01-17T03:29:55.003Z,69.90
2019-01-17T03:32:35.520Z,69.80
2019-01-17T03:35:16.107Z,69.50
2019-01-17T03:37:56.563Z,69.20
2019-01-17T03:40:37.535Z,69.20
2019-01-17T03:43:18.217Z,69.60
2019-01-17T03:45:58.735Z,69.00
2019-01-17T03:48:39.171Z,69.40
2019-01-17T03:51:20.079Z,69.00
2019-01-17T03:54:00.937Z,69.20
2019-01-17T03:56:41.542Z,69.20
2019-01-17T03:59:22.184Z,69.50
2019-01-17T04:02:03.183Z,69.60
2019-01-17T04:04:43.692Z,69.80
2019-01-17T04:07:24.585Z,69.70
2019-01-17T04:10:05.266Z,69.70
2019-01-17T04:12:45.711Z,69.40
2019-01-17T04:15:26.917Z,69.70
2019-01-17T04:18:07.789Z,70.00
2019-01-17T04:20:48.303Z,70.10
2019-01-17T04:23:28.963Z,70.50
2019-01-17T04:26:09.907Z,70.60
2019-01-17T04:28:50.684Z,70.70
2019-01-17T04:31:31.143Z,70.40
2019-01-17T04:34:11.805Z,70.60
2019-01-17T04:36:52.565Z,70.40
2019-01-17T04:39:33.220Z,70.50
2019-01-17T04:42:13.755Z,71.70
2019-01-17T04:44:54.241Z,71.00
2019-01-17T04:47:34.976Z,70.90
2019-01-17T04:50:15.533Z,70.70
2019-01-17T04:52:55.935Z,70.90
2019-01-17T04:55:36.840Z,70.80
2019-01-17T04:58:17.446Z,70.80
2019-01-17T05:00:57.985Z,70.90
2019-01-17T05:03:38.453Z,70.80
2019-01-17T05:06:18.975Z,70.90
2019-01-17T05:08:59.548Z,70.70
2019-01-17T05:11:40.183Z,71.30
2019-01-17T05:14:21.327Z,71.40
2019-01-17T05:17:02.256Z,71.00
2019-01-17T05:19:43.457Z,71.40
2019-01-17T05:22:24.040Z,71.70
2019-01-17T05:25:04.573Z,71.30
2019-01-17T05:27:45.106Z,70.90
2019-01-17T05:30:25.755Z,71.10
2019-01-17T05:33:06.211Z,71.00
2019-01-17T05:35:46.984Z,71.60
2019-01-17T05:38:28.193Z,72.80
2019-01-17T05:41:09.317Z,72.00
2019-01-17T05:43:50.249Z,72.50
2019-01-17T05:46:31.203Z,72.70
2019-01-17T05:49:11.696Z,72.70
2019-01-17T05:51:52.717Z,72.90
2019-01-17T05:54:33.370Z,73.20
2019-01-17T05:57:14.023Z,73.30
2019-01-17T05:59:54.714Z,73.40
2019-01-17T06:02:35.451Z,73.70
2019-01-17T06:05:16.221Z,73.80
2019-01-17T06:07:56.849Z,74.30
2019-01-17T06:10:37.839Z,74.40
2019-01-17T06:13:18.410Z,74.60
2019-01-17T06:15:58.989Z,74.50
2019-01-17T06:18:39.979Z,74.50
2019-01-17T06:21:20.755Z,74.70
2019-01-17T06:24:01.357Z,74.30
2019-01-17T06:26:42.239Z,74.30
2019-01-17T06:29:22.663Z,74.10
2019-01-17T06:32:03.331Z,74.20
2019-01-17T06:34:43.854Z,73.60
2019-01-17T06:37:24.775Z,73.60
2019-01-17T06:40:05.493Z,73.80
2019-01-17T06:42:46.114Z,73.30
2019-01-17T06:45:26.927Z,73.30
2019-01-17T06:48:07.775Z,72.80
2019-01-17T06:50:48.643Z,73.20
2019-01-17T06:53:29.259Z,73.30
2019-01-17T06:56:10.149Z,73.00
2019-01-17T06:58:50.861Z,72.80
2019-01-17T07:01:31.598Z,73.00
2019-01-17T07:04:12.357Z,72.60
2019-01-17T07:06:52.981Z,73.20
2019-01-17T07:09:33.896Z,73.40
2019-01-17T07:12:14.857Z,73.40
2019-01-17T07:14:55.567Z,72.90
2019-01-17T07:17:36.561Z,73.10
2019-01-17T07:20:17.705Z,73.00
2019-01-17T07:22:58.519Z,73.90
2019-01-17T07:25:41.175Z,73.50
2019-01-17T07:28:22.092Z,73.70
2019-01-17T07:31:02.707Z,74.10
2019-01-17T07:33:43.227Z,73.80
2019-01-17T07:36:24.036Z,74.30
2019-01-17T07:39:04.819Z,74.40
2019-01-17T07:41:45.619Z,74.40
2019-01-17T07:44:26.309Z,74.40
2019-01-17T07:47:07.193Z,74.40
2019-01-17T07:49:47.885Z,74.10
2019-01-17T07:52:28.785Z,74.10
2019-01-17T07:55:09.418Z,75.10
2019-01-17T07:57:50.210Z,74.00
2019-01-17T08:00:30.917Z,74.10
2019-01-17T08:03:11.736Z,74.10
2019-01-17T08:05:52.327Z,73.80
2019-01-17T08:08:33.467Z,74.20
2019-01-17T08:11:14.009Z,75.70
2019-01-17T08:13:54.805Z,74.50
2019-01-17T08:16:35.379Z,74.80
2019-01-17T08:19:16.222Z,73.60
2019-01-17T08:21:56.705Z,73.70
2019-01-17T08:24:37.495Z,73.70
2019-01-17T08:27:18.163Z,74.00
2019-01-17T08:29:59.314Z,74.00
2019-01-17T08:32:39.793Z,74.10
2019-01-17T08:35:20.850Z,74.40
2019-01-17T08:38:01.366Z,74.20
2019-01-17T08:40:42.240Z,74.30
2019-01-17T08:43:23.083Z,74.40
2019-01-17T08:46:03.942Z,74.50
2019-01-17T08:48:44.355Z,74.60
2019-01-17T08:51:25.062Z,74.80
2019-01-17T08:54:05.878Z,74.70
2019-01-17T08:56:46.465Z,74.50
2019-01-17T08:59:27.081Z,74.90
2019-01-17T09:02:07.798Z,75.50
2019-01-17T09:04:48.190Z,76.10
2019-01-17T09:07:28.685Z,75.50
2019-01-17T09:10:09.343Z,75.20
2019-01-17T09:12:50.085Z,75.70
2019-01-17T09:15:30.987Z,76.30
2019-01-17T09:18:11.767Z,76.20
2019-01-17T09:20:52.913Z,77.10
2019-01-17T09:23:33.526Z,77.40
2019-01-17T09:26:14.334Z,77.50
2019-01-17T09:28:55.075Z,77.40
2019-01-17T09:31:36.294Z,79.40
2019-01-17T09:34:17.338Z,78.50
2019-01-17T09:36:57.837Z,80.30
2019-01-17T09:39:39.426Z,82.10
2019-01-17T09:42:20.120Z,79.90
2019-01-17T09:45:00.941Z,81.30
2019-01-17T09:47:41.601Z,80.50
2019-01-17T09:50:22.403Z,80.90
2019-01-17T09:53:03.098Z,81.40
2019-01-17T09:55:43.617Z,80.80
2019-01-17T09:58:24.526Z,80.70
2019-01-17T10:01:05.250Z,81.50
2019-01-17T10:03:45.778Z,80.80
2019-01-17T10:06:26.367Z,81.00
2019-01-17T10:09:06.763Z,80.60
2019-01-17T10:11:47.781Z,80.30
2019-01-17T10:14:28.262Z,81.20
2019-01-17T10:17:08.794Z,80.10
2019-01-17T10:19:49.518Z,80.60
2019-01-17T10:22:29.905Z,81.20
2019-01-17T10:25:11.077Z,80.40
2019-01-17T10:27:51.597Z,80.40
2019-01-17T10:30:32.628Z,80.00
2019-01-17T10:33:13.512Z,80.10
2019-01-17T10:35:54.528Z,80.20
2019-01-17T10:38:35.145Z,80.80
2019-01-17T10:41:16.054Z,80.50
2019-01-17T10:43:56.766Z,80.00
2019-01-17T10:46:37.518Z,79.60
2019-01-17T10:49:18.101Z,78.90
2019-01-17T10:51:59.102Z,78.90
2019-01-17T10:54:39.427Z,79.10
2019-01-17T10:57:20.078Z,79.70
2019-01-17T11:00:00.530Z,78.60
2019-01-17T11:02:41.152Z,79.20
2019-01-17T11:05:21.734Z,78.30
2019-01-17T11:08:02.529Z,79.00
2019-01-17T11:10:43.047Z,79.30
2019-01-17T11:13:23.682Z,78.80
2019-01-17T11:16:04.450Z,79.10
2019-01-17T11:18:44.959Z,78.50
2019-01-17T11:21:25.376Z,79.00
2019-01-17T11:24:06.327Z,77.50
2019-01-17T11:26:46.778Z,76.10
2019-01-17T11:29:27.366Z,76.60
2019-01-17T11:32:08.030Z,76.50
2019-01-17T11:34:48.847Z,76.90
2019-01-17T11:37:29.537Z,77.50
2019-01-17T11:40:10.110Z,76.90
2019-01-17T11:42:50.605Z,77.60
2019-01-17T11:45:31.065Z,77.80
2019-01-17T11:48:11.680Z,77.70
2019-01-17T11:50:52.587Z,78.20
2019-01-17T11:53:33.387Z,78.40
2019-01-17T11:56:14.098Z,79.30
2019-01-17T11:58:59.933Z,79.40
2019-01-17T12:01:38.248Z,78.90
2019-01-17T12:04:19.114Z,78.60
2019-01-17T12:06:59.983Z,78.70
2019-01-17T12:09:40.734Z,79.30
2019-01-17T12:12:22.102Z,79.10
2019-01-17T12:15:03.158Z,79.40
2019-01-17T12:17:43.863Z,79.60
2019-01-17T12:20:24.473Z,79.20
2019-01-17T12:23:05.563Z,79.40
2019-01-17T12:25:46.682Z,78.70
2019-01-17T12:28:27.438Z,78.80
2019-01-17T12:31:07.886Z,78.10
2019-01-17T12:33:49.007Z,77.80
2019-01-17T12:36:29.649Z,77.30
2019-01-17T12:39:10.590Z,77.90
2019-01-17T12:41:51.358Z,77.50
2019-01-17T12:44:32.158Z,76.80
2019-01-17T12:47:12.903Z,76.90
2019-01-17T12:49:53.410Z,76.60
2019-01-17T12:52:34.058Z,76.20
2019-01-17T12:55:14.654Z,76.80
2019-01-17T12:57:55.214Z,76.40
2019-01-17T13:00:36.102Z,76.10
2019-01-17T13:03:16.496Z,76.40
2019-01-17T13:05:57.404Z,76.60
2019-01-17T13:08:37.982Z,76.10
2019-01-17T13:11:18.502Z,76.70
2019-01-17T13:13:59.059Z,76.60
2019-01-17T13:16:39.730Z,76.60
2019-01-17T13:19:20.810Z,76.30
2019-01-17T13:22:01.688Z,76.90
2019-01-17T13:24:42.486Z,78.60
2019-01-17T13:27:22.956Z,77.40
2019-01-17T13:30:03.977Z,78.40
2019-01-17T13:32:44.614Z,78.80
2019-01-17T13:35:24.990Z,79.40
2019-01-17T13:38:05.602Z,79.10
2019-01-17T13:40:46.098Z,81.80
2019-01-17T13:43:26.890Z,84.40
2019-01-17T13:46:07.886Z,82.40
2019-01-17T13:48:48.394Z,81.30
2019-01-17T13:51:29.094Z,81.60
2019-01-17T13:54:09.607Z,83.80
2019-01-17T13:56:50.883Z,80.10
2019-01-17T13:59:31.502Z,78.10
2019-01-17T14:02:12.168Z,74.10
2019-01-17T14:04:52.814Z,63.20
2019-01-17T14:07:33.718Z,59.30
2019-01-17T14:10:14.176Z,55.00
2019-01-17T14:12:54.554Z,53.70
2019-01-17T14:15:35.601Z,49.30
2019-01-17T14:18:16.074Z,50.30
2019-01-17T14:20:56.647Z,49.90
2019-01-17T14:23:37.180Z,50.30
2019-01-17T14:26:18.249Z,49.30
2019-01-17T14:28:58.958Z,51.30
2019-01-17T14:31:40.080Z,54.00
2019-01-17T14:34:20.638Z,58.60
2019-01-17T14:37:01.363Z,63.40
2019-01-17T14:39:42.022Z,64.90
2019-01-17T14:42:22.797Z,65.50
2019-01-17T14:45:03.402Z,65.40
2019-01-17T14:47:44.047Z,62.50
2019-01-17T14:50:24.899Z,65.10
2019-01-17T14:53:05.810Z,66.80
2019-01-17T14:55:46.591Z,67.60
2019-01-17T14:58:27.058Z,67.30
2019-01-17T15:01:07.703Z,69.50
2019-01-17T15:03:48.679Z,66.20
2019-01-17T15:06:29.182Z,67.30
2019-01-17T15:09:10.318Z,69.20
2019-01-17T15:11:50.976Z,68.70
2019-01-17T15:14:31.682Z,69.90
2019-01-17T15:17:12.592Z,71.00
2019-01-17T15:19:53.474Z,69.90
2019-01-17T15:22:34.494Z,70.10
2019-01-17T15:25:15.162Z,71.00
2019-01-17T15:27:55.630Z,70.40
2019-01-17T15:30:36.566Z,71.10
2019-01-17T15:33:17.462Z,71.90
2019-01-17T15:35:58.043Z,72.00
2019-01-17T15:38:38.842Z,71.90
2019-01-17T15:41:19.907Z,72.30
2019-01-17T15:44:00.826Z,72.30
2019-01-17T15:46:41.458Z,73.60
2019-01-17T15:49:22.406Z,72.80
2019-01-17T15:52:03.314Z,72.70
2019-01-17T15:54:44.034Z,72.70
2019-01-17T15:57:24.694Z,73.30
2019-01-17T16:00:05.361Z,72.90
2019-01-17T16:02:45.954Z,73.00
2019-01-17T16:05:26.388Z,73.10
2019-01-17T16:08:07.066Z,73.90
2019-01-17T16:10:47.426Z,73.20
2019-01-17T16:13:28.290Z,74.00
2019-01-17T16:16:08.814Z,75.70
2019-01-17T16:18:49.190Z,75.60
2019-01-17T16:21:29.647Z,76.00
2019-01-17T16:24:10.539Z,75.90
2019-01-17T16:26:51.470Z,75.50
2019-01-17T16:29:32.702Z,75.50
2019-01-17T16:32:13.339Z,75.80
2019-01-17T16:34:54.066Z,75.30
2019-01-17T16:37:34.650Z,74.90
2019-01-17T16:40:15.422Z,74.90
2019-01-17T16:42:56.262Z,74.00
2019-01-17T16:45:36.998Z,73.90
2019-01-17T16:48:17.507Z,74.20
2019-01-17T16:50:57.950Z,73.30
2019-01-17T16:53:38.578Z,73.20
2019-01-17T16:56:19.255Z,73.20
2019-01-17T16:58:59.803Z,73.10
2019-01-17T17:01:40.322Z,73.80
2019-01-17T17:04:21.022Z,73.20
2019-01-17T17:07:01.431Z,73.60
2019-01-17T17:09:42.547Z,73.20
2019-01-17T17:12:23.114Z,72.20
2019-01-17T17:15:03.790Z,72.20
2019-01-17T17:17:44.576Z,72.50
2019-01-17T17:20:25.446Z,71.80
2019-01-17T17:23:06.160Z,71.80
2019-01-17T17:25:46.761Z,71.40
2019-01-17T17:28:27.726Z,70.90
2019-01-17T17:31:08.562Z,70.90
2019-01-17T17:33:48.938Z,71.30
2019-01-17T17:36:30.098Z,71.20
2019-01-17T17:39:10.786Z,71.50
2019-01-17T17:41:51.598Z,71.10
2019-01-17T17:44:32.382Z,70.90
2019-01-17T17:47:13.206Z,71.30
2019-01-17T17:49:54.371Z,71.70
2019-01-17T17:52:35.190Z,71.90
2019-01-17T17:55:15.923Z,72.50
2019-01-17T17:58:02.122Z,72.40
2019-01-17T18:00:43.752Z,72.30
2019-01-17T18:03:24.228Z,72.70
2019-01-17T18:06:05.033Z,72.30
2019-01-17T18:08:45.895Z,72.40
2019-01-17T18:11:26.402Z,71.90
2019-01-17T18:14:07.387Z,72.10
2019-01-17T18:16:47.952Z,71.80
2019-01-17T18:21:17.976Z,94.60
2019-01-17T18:24:44.052Z,47.40
2019-01-17T18:27:12.670Z,58.10
2019-01-17T18:29:50.986Z,68.90
2019-01-17T18:32:19.531Z,73.00
2019-01-17T18:34:48.104Z,73.90
2019-01-17T18:37:16.690Z,73.50
2019-01-17T18:39:46.400Z,73.90
2019-01-17T18:42:15.092Z,73.50
2019-01-17T18:44:43.684Z,74.10
2019-01-17T18:47:12.254Z,73.60
2019-01-17T18:49:40.878Z,73.40
2019-01-17T18:52:09.634Z,72.90
2019-01-17T18:54:38.182Z,72.80
2019-01-17T18:57:06.690Z,73.20
2019-01-17T18:59:35.377Z,75.00
2019-01-17T19:02:04.131Z,73.90
2019-01-17T19:04:32.676Z,74.60
2019-01-17T19:07:01.250Z,75.80
2019-01-17T19:09:29.796Z,78.50
2019-01-17T19:11:58.371Z,81.90
2019-01-17T19:14:26.920Z,85.70
2019-01-17T19:16:55.502Z,90.00
2019-01-17T19:19:24.066Z,90.80
2019-01-17T19:21:52.610Z,90.80
2019-01-17T19:24:21.204Z,90.70
2019-01-17T19:26:49.750Z,90.90
2019-01-17T19:29:18.266Z,91.30
2019-01-17T19:31:46.813Z,91.20
2019-01-17T19:34:15.414Z,91.10
2019-01-17T19:36:43.983Z,90.90
2019-01-17T19:39:12.646Z,90.60
2019-01-17T19:41:41.195Z,90.60
2019-01-17T19:44:09.847Z,90.40
2019-01-17T19:46:38.396Z,90.10
2019-01-17T19:49:07.160Z,90.00
2019-01-17T19:51:35.667Z,90.10
2019-01-17T19:54:04.549Z,90.20
2019-01-17T19:56:33.171Z,90.10
2019-01-17T19:59:01.842Z,89.90
2019-01-17T20:01:30.393Z,89.50
2019-01-17T20:03:58.899Z,89.90
2019-01-17T20:06:27.447Z,90.10
2019-01-17T20:08:56.114Z,89.70
2019-01-17T20:11:24.662Z,89.10
2019-01-17T20:13:53.250Z,90.00
2019-01-17T20:16:21.798Z,89.50
2019-01-17T20:18:50.380Z,88.80
2019-01-17T20:21:19.074Z,88.70
2019-01-17T20:23:47.653Z,89.10
2019-01-17T20:26:16.193Z,89.60
2019-01-17T20:28:44.773Z,88.00
2019-01-17T20:31:13.328Z,88.60
2019-01-17T20:33:41.969Z,87.70
2019-01-17T20:36:10.590Z,88.40
2019-01-17T20:38:39.180Z,88.10
2019-01-17T20:41:07.900Z,88.60
2019-01-17T20:43:36.420Z,88.10
2019-01-17T20:46:04.977Z,86.90
2019-01-17T20:48:33.559Z,87.80
2019-01-17T20:51:02.114Z,87.60
2019-01-17T20:53:30.715Z,87.20
2019-01-17T20:55:59.261Z,87.30
2019-01-17T20:58:27.822Z,87.00
2019-01-17T21:01:02.368Z,88.20
2019-01-17T21:03:30.919Z,87.90
2019-01-17T21:05:59.508Z,87.10
2019-01-17T21:08:28.049Z,87.00
2019-01-17T21:10:56.567Z,86.90
2019-01-17T21:13:25.145Z,86.60
2019-01-17T21:15:53.707Z,86.70
2019-01-17T21:18:22.262Z,85.90
2019-01-17T21:20:50.854Z,87.90
2019-01-17T21:23:19.439Z,87.40
2019-01-17T21:25:48.013Z,86.30
2019-01-17T21:28:16.573Z,86.40
2019-01-17T21:30:45.087Z,86.30
2019-01-17T21:33:13.632Z,86.30
2019-01-17T21:35:42.290Z,85.60
2019-01-17T21:38:10.839Z,86.10
2019-01-17T21:40:39.415Z,85.50
2019-01-17T21:43:07.964Z,86.20
2019-01-17T21:45:36.474Z,84.90
2019-01-17T21:48:05.324Z,85.30
2019-01-17T21:50:33.991Z,85.20
2019-01-17T21:53:02.603Z,85.70
2019-01-17T21:55:31.261Z,86.00
2019-01-17T21:58:20.454Z,86.60
2019-01-17T22:00:49.078Z,86.10
2019-01-17T22:03:17.643Z,87.40
2019-01-17T22:05:46.301Z,86.80
2019-01-17T22:08:14.853Z,86.40
2019-01-17T22:10:43.439Z,86.70
2019-01-17T22:13:12.086Z,86.80
2019-01-17T22:15:40.601Z,87.00
2019-01-17T22:18:09.145Z,87.20
2019-01-17T22:20:37.891Z,86.70
2019-01-17T22:23:06.428Z,87.20
2019-01-17T22:25:34.999Z,86.00
2019-01-17T22:28:03.729Z,84.70
2019-01-17T22:30:32.280Z,83.80
2019-01-17T22:33:00.923Z,84.20
2019-01-17T22:35:29.440Z,84.90
2019-01-17T22:37:58.019Z,84.40
2019-01-17T22:40:26.606Z,84.80
2019-01-17T22:42:55.193Z,85.10
2019-01-17T22:45:29.405Z,84.60
2019-01-17T22:47:57.917Z,85.00
2019-01-17T22:50:26.465Z,84.90
2019-01-17T22:52:55.290Z,84.50
2019-01-17T22:55:23.940Z,85.20
2019-01-17T22:57:52.443Z,85.20
2019-01-17T23:00:50.769Z,84.80
2019-01-17T23:03:21.988Z,84.70
2019-01-17T23:05:50.636Z,84.80
2019-01-17T23:08:19.287Z,84.40
2019-01-17T23:10:47.831Z,84.60
2019-01-17T23:13:16.583Z,83.60
2019-01-17T23:15:45.206Z,84.10
2019-01-17T23:18:13.785Z,83.80
2019-01-17T23:20:42.267Z,83.60
2019-01-17T23:23:10.934Z,82.80
2019-01-17T23:25:39.460Z,83.10
2019-01-17T23:28:08.036Z,82.20
2019-01-17T23:30:36.591Z,82.10
2019-01-17T23:33:05.401Z,82.00
2019-01-17T23:35:34.024Z,81.50
2019-01-17T23:38:02.569Z,81.80
2019-01-17T23:40:31.679Z,81.40
2019-01-17T23:43:00.233Z,80.50
2019-01-17T23:45:28.815Z,80.60
2019-01-17T23:47:57.462Z,80.40
2019-01-17T23:50:26.048Z,79.60
2019-01-17T23:52:54.528Z,79.00
2019-01-17T23:55:23.141Z,79.00
2019-01-17T23:57:51.621Z,78.40
